aviador You're here:

CYDF Decoded Metar

DEER LAKE in NL, CANADA
Report Time2018-06-25 06:00:00
UTC Time2018-06-25 06:23:12
Flight Rules vfr VFR
Wind050° at 07 kt
W.Decomp.*RWY 07: 7.0 kt HW 0.2 kt RCW
W.Rank050° ranks 7
Current wind is below 050° avg. (7.6)
Visibility9999 m
Phenomena:N/A
Clouds:Few 008 Hf
Overcast 043 Hf
Expected CloudBase > 400 ft AGL from Temp-Dew spread
Ceiling4,300 ft
Temp05°C (ISA -10)
Dew Point04°C (93% RH)
AAT1.2°C
QNH1015 hPa
Density Alt-1,076 ft
Elevation72 ft
Report Wrong Elevation
Raw Report
CYDF 250600Z 05007KT 15SM FEW008 OVC043 05/04 A2996 RMK SF2SC6
SLP148=

Extra information for CYDF:More info

Metar Taf Metar & Taf Last 4 Metars F.Rules Stats Wind Profile Meteogram Temp Stats Airport Information Weather charts Add Link Nearby VenuesMetar ALERT Operation Metar Decoded Social comments